sensor_id;sensor_type;location;lat;lon;timestamp;P1;durP1;ratioP1;P2;durP2;ratioP2
9997;SDS011;5038;53.064;8.624;2023-04-25T00:02:25;15.90;;;7.77;;
9997;SDS011;5038;53.064;8.624;2023-04-25T00:04:56;14.20;;;7.80;;
9997;SDS011;5038;53.064;8.624;2023-04-25T00:07:25;16.00;;;7.73;;
9997;SDS011;5038;53.064;8.624;2023-04-25T00:09:53;19.60;;;8.70;;
9997;SDS011;5038;53.064;8.624;2023-04-25T00:12:21;20.63;;;8.80;;
9997;SDS011;5038;53.064;8.624;2023-04-25T00:14:50;17.37;;;8.73;;
9997;SDS011;5038;53.064;8.624;2023-04-25T00:17:19;22.57;;;8.60;;
9997;SDS011;5038;53.064;8.624;2023-04-25T00:19:48;21.00;;;9.07;;
9997;SDS011;5038;53.064;8.624;2023-04-25T00:22:17;18.43;;;7.80;;
9997;SDS011;5038;53.064;8.624;2023-04-25T00:24:45;21.60;;;7.80;;
9997;SDS011;5038;53.064;8.624;2023-04-25T00:27:14;17.30;;;8.07;;
9997;SDS011;5038;53.064;8.624;2023-04-25T00:29:42;15.43;;;7.47;;
9997;SDS011;5038;53.064;8.624;2023-04-25T00:32:10;13.67;;;6.13;;
9997;SDS011;5038;53.064;8.624;2023-04-25T00:34:38;17.67;;;7.77;;
9997;SDS011;5038;53.064;8.624;2023-04-25T00:37:06;17.80;;;8.27;;
9997;SDS011;5038;53.064;8.624;2023-04-25T00:39:36;20.93;;;8.10;;
9997;SDS011;5038;53.064;8.624;2023-04-25T00:42:04;18.97;;;7.60;;
9997;SDS011;5038;53.064;8.624;2023-04-25T00:44:32;17.00;;;7.47;;
9997;SDS011;5038;53.064;8.624;2023-04-25T00:47:02;18.57;;;7.70;;
9997;SDS011;5038;53.064;8.624;2023-04-25T00:49:31;19.00;;;8.00;;
9997;SDS011;5038;53.064;8.624;2023-04-25T00:51:59;27.87;;;9.27;;
9997;SDS011;5038;53.064;8.624;2023-04-25T00:54:28;20.60;;;7.83;;
9997;SDS011;5038;53.064;8.624;2023-04-25T00:56:58;21.43;;;8.73;;
9997;SDS011;5038;53.064;8.624;2023-04-25T00:59:27;17.73;;;7.83;;
9997;SDS011;5038;53.064;8.624;2023-04-25T01:01:56;21.90;;;8.90;;
9997;SDS011;5038;53.064;8.624;2023-04-25T01:04:25;15.97;;;7.33;;
9997;SDS011;5038;53.064;8.624;2023-04-25T01:06:55;23.10;;;8.03;;
9997;SDS011;5038;53.064;8.624;2023-04-25T01:09:24;18.30;;;7.47;;
9997;SDS011;5038;53.064;8.624;2023-04-25T01:11:53;21.03;;;8.50;;
9997;SDS011;5038;53.064;8.624;2023-04-25T01:14:23;21.13;;;7.80;;
9997;SDS011;5038;53.064;8.624;2023-04-25T01:16:51;21.30;;;7.60;;
9997;SDS011;5038;53.064;8.624;2023-04-25T01:19:20;22.80;;;8.60;;
9997;SDS011;5038;53.064;8.624;2023-04-25T01:21:50;20.07;;;7.33;;
9997;SDS011;5038;53.064;8.624;2023-04-25T01:24:19;28.27;;;9.10;;
9997;SDS011;5038;53.064;8.624;2023-04-25T01:26:47;21.57;;;9.90;;
9997;SDS011;5038;53.064;8.624;2023-04-25T01:29:22;19.57;;;8.50;;
9997;SDS011;5038;53.064;8.624;2023-04-25T01:31:51;27.80;;;9.33;;
9997;SDS011;5038;53.064;8.624;2023-04-25T01:34:20;18.90;;;8.03;;
9997;SDS011;5038;53.064;8.624;2023-04-25T01:36:50;18.87;;;7.97;;
9997;SDS011;5038;53.064;8.624;2023-04-25T01:39:18;25.27;;;8.83;;
9997;SDS011;5038;53.064;8.624;2023-04-25T01:41:47;22.80;;;7.43;;
9997;SDS011;5038;53.064;8.624;2023-04-25T01:44:16;22.97;;;8.63;;
9997;SDS011;5038;53.064;8.624;2023-04-25T01:46:44;17.50;;;7.30;;
9997;SDS011;5038;53.064;8.624;2023-04-25T01:49:12;20.03;;;7.77;;
9997;SDS011;5038;53.064;8.624;2023-04-25T01:51:42;21.33;;;8.70;;
9997;SDS011;5038;53.064;8.624;2023-04-25T01:54:12;21.43;;;7.93;;
9997;SDS011;5038;53.064;8.624;2023-04-25T01:56:41;24.60;;;8.87;;
9997;SDS011;5038;53.064;8.624;2023-04-25T01:59:10;25.50;;;9.40;;
9997;SDS011;5038;53.064;8.624;2023-04-25T02:01:54;30.03;;;8.50;;
9997;SDS011;5038;53.064;8.624;2023-04-25T02:04:27;20.27;;;7.83;;
9997;SDS011;5038;53.064;8.624;2023-04-25T02:06:56;18.30;;;8.00;;
9997;SDS011;5038;53.064;8.624;2023-04-25T02:09:33;18.57;;;9.13;;
9997;SDS011;5038;53.064;8.624;2023-04-25T02:12:05;18.10;;;7.17;;
9997;SDS011;5038;53.064;8.624;2023-04-25T02:14:42;18.50;;;7.33;;
9997;SDS011;5038;53.064;8.624;2023-04-25T02:17:26;22.70;;;8.03;;
9997;SDS011;5038;53.064;8.624;2023-04-25T02:19:54;19.90;;;7.90;;
9997;SDS011;5038;53.064;8.624;2023-04-25T02:22:22;17.83;;;7.33;;
9997;SDS011;5038;53.064;8.624;2023-04-25T02:24:52;25.17;;;8.33;;
9997;SDS011;5038;53.064;8.624;2023-04-25T02:27:21;15.00;;;7.77;;
9997;SDS011;5038;53.064;8.624;2023-04-25T02:29:49;18.37;;;7.63;;
9997;SDS011;5038;53.064;8.624;2023-04-25T02:32:17;22.93;;;7.90;;
9997;SDS011;5038;53.064;8.624;2023-04-25T02:34:46;15.80;;;7.03;;
9997;SDS011;5038;53.064;8.624;2023-04-25T02:37:14;19.53;;;7.23;;
9997;SDS011;5038;53.064;8.624;2023-04-25T02:39:44;18.93;;;7.10;;
9997;SDS011;5038;53.064;8.624;2023-04-25T02:42:14;19.13;;;7.10;;
9997;SDS011;5038;53.064;8.624;2023-04-25T02:44:42;18.70;;;7.10;;
9997;SDS011;5038;53.064;8.624;2023-04-25T02:47:10;17.97;;;6.90;;
9997;SDS011;5038;53.064;8.624;2023-04-25T02:49:38;18.80;;;7.07;;
9997;SDS011;5038;53.064;8.624;2023-04-25T02:52:07;18.97;;;7.57;;
9997;SDS011;5038;53.064;8.624;2023-04-25T02:54:35;20.93;;;7.40;;
9997;SDS011;5038;53.064;8.624;2023-04-25T02:57:03;19.57;;;8.50;;
9997;SDS011;5038;53.064;8.624;2023-04-25T02:59:36;18.50;;;6.87;;
9997;SDS011;5038;53.064;8.624;2023-04-25T03:02:04;15.63;;;6.60;;
9997;SDS011;5038;53.064;8.624;2023-04-25T03:04:33;25.13;;;8.10;;
9997;SDS011;5038;53.064;8.624;2023-04-25T03:07:01;19.73;;;7.03;;
9997;SDS011;5038;53.064;8.624;2023-04-25T03:09:29;21.57;;;7.93;;
9997;SDS011;5038;53.064;8.624;2023-04-25T03:11:57;18.77;;;7.20;;
9997;SDS011;5038;53.064;8.624;2023-04-25T03:14:25;20.37;;;7.67;;
9997;SDS011;5038;53.064;8.624;2023-04-25T03:16:55;17.83;;;6.30;;
9997;SDS011;5038;53.064;8.624;2023-04-25T03:19:23;19.67;;;6.23;;
9997;SDS011;5038;53.064;8.624;2023-04-25T03:21:51;18.10;;;6.67;;
9997;SDS011;5038;53.064;8.624;2023-04-25T03:24:20;19.40;;;6.93;;
9997;SDS011;5038;53.064;8.624;2023-04-25T03:26:48;23.13;;;6.60;;
9997;SDS011;5038;53.064;8.624;2023-04-25T03:29:16;17.97;;;7.53;;
9997;SDS011;5038;53.064;8.624;2023-04-25T03:31:46;21.17;;;6.87;;
9997;SDS011;5038;53.064;8.624;2023-04-25T03:34:15;21.23;;;6.47;;
9997;SDS011;5038;53.064;8.624;2023-04-25T03:36:43;12.40;;;6.77;;
9997;SDS011;5038;53.064;8.624;2023-04-25T03:39:12;16.67;;;6.60;;
9997;SDS011;5038;53.064;8.624;2023-04-25T03:41:45;15.63;;;6.77;;
9997;SDS011;5038;53.064;8.624;2023-04-25T03:44:16;17.57;;;7.20;;
9997;SDS011;5038;53.064;8.624;2023-04-25T03:46:44;16.50;;;6.97;;
9997;SDS011;5038;53.064;8.624;2023-04-25T03:49:12;28.20;;;7.40;;
9997;SDS011;5038;53.064;8.624;2023-04-25T03:52:02;15.90;;;5.90;;
9997;SDS011;5038;53.064;8.624;2023-04-25T03:54:37;18.73;;;6.77;;
9997;SDS011;5038;53.064;8.624;2023-04-25T03:57:12;17.87;;;6.63;;
9997;SDS011;5038;53.064;8.624;2023-04-25T03:59:41;15.03;;;6.90;;
9997;SDS011;5038;53.064;8.624;2023-04-25T04:02:12;15.90;;;5.90;;
9997;SDS011;5038;53.064;8.624;2023-04-25T04:04:41;15.80;;;5.93;;
9997;SDS011;5038;53.064;8.624;2023-04-25T04:07:12;19.30;;;6.43;;
9997;SDS011;5038;53.064;8.624;2023-04-25T04:09:43;17.30;;;6.57;;
9997;SDS011;5038;53.064;8.624;2023-04-25T04:12:26;16.67;;;6.10;;
9997;SDS011;5038;53.064;8.624;2023-04-25T04:14:55;18.37;;;6.53;;
9997;SDS011;5038;53.064;8.624;2023-04-25T04:17:23;15.70;;;6.53;;
9997;SDS011;5038;53.064;8.624;2023-04-25T04:19:51;11.93;;;5.57;;
9997;SDS011;5038;53.064;8.624;2023-04-25T04:22:21;16.83;;;6.83;;
9997;SDS011;5038;53.064;8.624;2023-04-25T04:24:52;16.50;;;6.07;;
9997;SDS011;5038;53.064;8.624;2023-04-25T04:27:34;16.60;;;5.90;;
9997;SDS011;5038;53.064;8.624;2023-04-25T04:30:16;15.13;;;5.50;;
9997;SDS011;5038;53.064;8.624;2023-04-25T04:32:55;10.97;;;5.17;;
9997;SDS011;5038;53.064;8.624;2023-04-25T04:35:23;24.30;;;6.90;;
9997;SDS011;5038;53.064;8.624;2023-04-25T04:37:53;13.40;;;5.73;;
9997;SDS011;5038;53.064;8.624;2023-04-25T04:40:24;13.87;;;5.10;;
9997;SDS011;5038;53.064;8.624;2023-04-25T04:43:01;18.00;;;6.37;;
9997;SDS011;5038;53.064;8.624;2023-04-25T04:45:53;18.77;;;5.70;;
9997;SDS011;5038;53.064;8.624;2023-04-25T04:48:31;17.30;;;5.93;;
9997;SDS011;5038;53.064;8.624;2023-04-25T04:51:18;13.00;;;5.23;;
9997;SDS011;5038;53.064;8.624;2023-04-25T04:53:54;16.43;;;5.83;;
9997;SDS011;5038;53.064;8.624;2023-04-25T04:56:46;12.20;;;4.57;;
9997;SDS011;5038;53.064;8.624;2023-04-25T04:59:37;17.30;;;5.83;;
9997;SDS011;5038;53.064;8.624;2023-04-25T05:02:23;17.57;;;4.93;;
9997;SDS011;5038;53.064;8.624;2023-04-25T05:05:05;20.37;;;5.33;;
9997;SDS011;5038;53.064;8.624;2023-04-25T05:07:33;11.50;;;5.30;;
9997;SDS011;5038;53.064;8.624;2023-04-25T05:10:10;17.67;;;5.30;;
9997;SDS011;5038;53.064;8.624;2023-04-25T05:12:56;12.90;;;6.57;;
9997;SDS011;5038;53.064;8.624;2023-04-25T05:16:03;13.47;;;5.63;;
9997;SDS011;5038;53.064;8.624;2023-04-25T05:18:55;9.80;;;4.93;;
9997;SDS011;5038;53.064;8.624;2023-04-25T05:21:40;17.63;;;6.00;;
9997;SDS011;5038;53.064;8.624;2023-04-25T05:24:29;12.40;;;4.43;;
9997;SDS011;5038;53.064;8.624;2023-04-25T05:27:37;14.50;;;4.80;;
9997;SDS011;5038;53.064;8.624;2023-04-25T05:30:37;15.60;;;6.23;;
9997;SDS011;5038;53.064;8.624;2023-04-25T05:33:09;16.13;;;5.90;;
9997;SDS011;5038;53.064;8.624;2023-04-25T05:35:38;20.67;;;4.77;;
9997;SDS011;5038;53.064;8.624;2023-04-25T05:38:06;12.00;;;5.97;;
9997;SDS011;5038;53.064;8.624;2023-04-25T05:40:53;11.10;;;3.90;;
9997;SDS011;5038;53.064;8.624;2023-04-25T05:43:44;13.50;;;4.47;;
9997;SDS011;5038;53.064;8.624;2023-04-25T05:46:47;12.60;;;5.37;;
9997;SDS011;5038;53.064;8.624;2023-04-25T05:49:42;13.33;;;4.90;;
9997;SDS011;5038;53.064;8.624;2023-04-25T05:52:30;11.80;;;4.70;;
9997;SDS011;5038;53.064;8.624;2023-04-25T05:55:21;11.20;;;4.73;;
9997;SDS011;5038;53.064;8.624;2023-04-25T05:57:50;8.10;;;3.90;;
9997;SDS011;5038;53.064;8.624;2023-04-25T06:00:19;10.43;;;4.60;;
9997;SDS011;5038;53.064;8.624;2023-04-25T06:02:49;12.43;;;4.77;;
9997;SDS011;5038;53.064;8.624;2023-04-25T06:05:18;12.70;;;4.10;;
9997;SDS011;5038;53.064;8.624;2023-04-25T06:07:48;15.17;;;4.33;;
9997;SDS011;5038;53.064;8.624;2023-04-25T06:10:16;9.30;;;3.47;;
9997;SDS011;5038;53.064;8.624;2023-04-25T06:12:44;12.40;;;4.47;;
9997;SDS011;5038;53.064;8.624;2023-04-25T06:15:14;11.27;;;4.10;;
9997;SDS011;5038;53.064;8.624;2023-04-25T06:17:49;9.43;;;4.13;;
9997;SDS011;5038;53.064;8.624;2023-04-25T06:20:18;11.90;;;4.50;;
9997;SDS011;5038;53.064;8.624;2023-04-25T06:22:50;12.07;;;4.37;;
9997;SDS011;5038;53.064;8.624;2023-04-25T06:25:20;9.20;;;3.70;;
9997;SDS011;5038;53.064;8.624;2023-04-25T06:27:49;13.60;;;4.40;;
9997;SDS011;5038;53.064;8.624;2023-04-25T06:30:17;11.60;;;3.80;;
9997;SDS011;5038;53.064;8.624;2023-04-25T06:32:52;9.00;;;3.40;;
9997;SDS011;5038;53.064;8.624;2023-04-25T06:35:21;10.57;;;4.10;;
9997;SDS011;5038;53.064;8.624;2023-04-25T06:37:49;12.37;;;3.57;;
9997;SDS011;5038;53.064;8.624;2023-04-25T06:40:20;8.43;;;3.20;;
9997;SDS011;5038;53.064;8.624;2023-04-25T06:42:49;10.07;;;3.17;;
9997;SDS011;5038;53.064;8.624;2023-04-25T06:45:33;10.20;;;3.43;;
9997;SDS011;5038;53.064;8.624;2023-04-25T06:48:04;10.20;;;4.17;;
9997;SDS011;5038;53.064;8.624;2023-04-25T06:50:33;13.60;;;3.97;;
9997;SDS011;5038;53.064;8.624;2023-04-25T06:53:01;7.93;;;3.57;;
9997;SDS011;5038;53.064;8.624;2023-04-25T06:55:29;9.47;;;3.20;;
9997;SDS011;5038;53.064;8.624;2023-04-25T06:58:30;9.20;;;3.73;;
9997;SDS011;5038;53.064;8.624;2023-04-25T07:01:08;10.27;;;3.23;;
9997;SDS011;5038;53.064;8.624;2023-04-25T07:03:38;9.20;;;3.40;;
9997;SDS011;5038;53.064;8.624;2023-04-25T07:06:13;10.60;;;3.53;;
9997;SDS011;5038;53.064;8.624;2023-04-25T07:08:41;9.57;;;3.27;;
9997;SDS011;5038;53.064;8.624;2023-04-25T07:11:09;7.17;;;3.13;;
9997;SDS011;5038;53.064;8.624;2023-04-25T07:13:38;10.70;;;3.57;;
9997;SDS011;5038;53.064;8.624;2023-04-25T07:16:07;10.30;;;3.37;;
9997;SDS011;5038;53.064;8.624;2023-04-25T07:18:35;12.40;;;3.33;;
9997;SDS011;5038;53.064;8.624;2023-04-25T07:21:05;9.20;;;3.40;;
9997;SDS011;5038;53.064;8.624;2023-04-25T07:23:35;9.03;;;3.20;;
9997;SDS011;5038;53.064;8.624;2023-04-25T07:26:09;11.60;;;3.67;;
9997;SDS011;5038;53.064;8.624;2023-04-25T07:28:48;9.10;;;3.20;;
9997;SDS011;5038;53.064;8.624;2023-04-25T07:31:18;9.57;;;3.80;;
9997;SDS011;5038;53.064;8.624;2023-04-25T07:33:46;7.90;;;3.20;;
9997;SDS011;5038;53.064;8.624;2023-04-25T07:36:15;9.43;;;2.83;;
9997;SDS011;5038;53.064;8.624;2023-04-25T07:38:44;9.83;;;3.80;;
9997;SDS011;5038;53.064;8.624;2023-04-25T07:41:12;6.40;;;2.80;;
9997;SDS011;5038;53.064;8.624;2023-04-25T07:43:40;9.57;;;2.97;;
9997;SDS011;5038;53.064;8.624;2023-04-25T07:46:09;11.00;;;3.00;;
9997;SDS011;5038;53.064;8.624;2023-04-25T07:48:37;9.80;;;2.77;;
9997;SDS011;5038;53.064;8.624;2023-04-25T07:51:05;7.27;;;2.73;;
9997;SDS011;5038;53.064;8.624;2023-04-25T07:53:36;10.90;;;3.20;;
9997;SDS011;5038;53.064;8.624;2023-04-25T07:56:09;9.03;;;2.93;;
9997;SDS011;5038;53.064;8.624;2023-04-25T07:58:41;12.67;;;3.03;;
9997;SDS011;5038;53.064;8.624;2023-04-25T08:01:12;10.50;;;3.10;;
9997;SDS011;5038;53.064;8.624;2023-04-25T08:03:51;9.93;;;3.20;;
9997;SDS011;5038;53.064;8.624;2023-04-25T08:06:25;11.47;;;2.77;;
9997;SDS011;5038;53.064;8.624;2023-04-25T08:09:15;11.23;;;3.13;;
9997;SDS011;5038;53.064;8.624;2023-04-25T08:11:43;11.70;;;3.03;;
9997;SDS011;5038;53.064;8.624;2023-04-25T08:14:14;6.53;;;2.93;;
9997;SDS011;5038;53.064;8.624;2023-04-25T08:16:43;10.43;;;3.47;;
9997;SDS011;5038;53.064;8.624;2023-04-25T08:19:12;18.43;;;3.40;;
9997;SDS011;5038;53.064;8.624;2023-04-25T08:21:40;6.90;;;2.73;;
9997;SDS011;5038;53.064;8.624;2023-04-25T08:24:13;8.97;;;2.80;;
9997;SDS011;5038;53.064;8.624;2023-04-25T08:26:43;7.10;;;2.53;;
9997;SDS011;5038;53.064;8.624;2023-04-25T08:29:15;6.70;;;1.80;;
9997;SDS011;5038;53.064;8.624;2023-04-25T08:31:43;5.43;;;2.20;;
9997;SDS011;5038;53.064;8.624;2023-04-25T08:34:13;6.50;;;2.60;;
9997;SDS011;5038;53.064;8.624;2023-04-25T08:36:47;6.60;;;2.40;;
9997;SDS011;5038;53.064;8.624;2023-04-25T08:39:33;5.60;;;1.87;;
9997;SDS011;5038;53.064;8.624;2023-04-25T08:42:28;7.27;;;2.57;;
9997;SDS011;5038;53.064;8.624;2023-04-25T08:44:59;5.80;;;2.50;;
9997;SDS011;5038;53.064;8.624;2023-04-25T08:47:35;5.97;;;2.20;;
9997;SDS011;5038;53.064;8.624;2023-04-25T08:50:06;7.43;;;2.17;;
9997;SDS011;5038;53.064;8.624;2023-04-25T08:52:36;6.40;;;2.00;;
9997;SDS011;5038;53.064;8.624;2023-04-25T08:55:07;6.77;;;2.43;;
9997;SDS011;5038;53.064;8.624;2023-04-25T08:57:39;7.10;;;2.20;;
9997;SDS011;5038;53.064;8.624;2023-04-25T09:00:10;5.33;;;1.60;;
9997;SDS011;5038;53.064;8.624;2023-04-25T09:02:42;6.60;;;2.30;;
9997;SDS011;5038;53.064;8.624;2023-04-25T09:05:12;11.13;;;3.03;;
9997;SDS011;5038;53.064;8.624;2023-04-25T09:07:42;6.20;;;2.10;;
9997;SDS011;5038;53.064;8.624;2023-04-25T09:10:11;6.97;;;2.00;;
9997;SDS011;5038;53.064;8.624;2023-04-25T09:12:40;8.23;;;2.57;;
9997;SDS011;5038;53.064;8.624;2023-04-25T09:15:09;8.30;;;2.60;;
9997;SDS011;5038;53.064;8.624;2023-04-25T09:18:24;7.77;;;2.33;;
9997;SDS011;5038;53.064;8.624;2023-04-25T09:20:58;6.30;;;2.47;;
9997;SDS011;5038;53.064;8.624;2023-04-25T09:23:48;5.53;;;2.20;;
9997;SDS011;5038;53.064;8.624;2023-04-25T09:26:19;5.80;;;1.93;;
9997;SDS011;5038;53.064;8.624;2023-04-25T09:28:50;5.67;;;1.80;;
9997;SDS011;5038;53.064;8.624;2023-04-25T09:31:35;8.20;;;2.80;;
9997;SDS011;5038;53.064;8.624;2023-04-25T09:34:06;6.63;;;2.00;;
9997;SDS011;5038;53.064;8.624;2023-04-25T09:36:42;5.70;;;2.00;;
9997;SDS011;5038;53.064;8.624;2023-04-25T09:39:32;6.90;;;2.43;;
9997;SDS011;5038;53.064;8.624;2023-04-25T09:42:10;4.53;;;1.87;;
9997;SDS011;5038;53.064;8.624;2023-04-25T09:44:42;5.27;;;2.00;;
9997;SDS011;5038;53.064;8.624;2023-04-25T09:47:12;6.27;;;1.93;;
9997;SDS011;5038;53.064;8.624;2023-04-25T09:49:43;5.23;;;1.70;;
9997;SDS011;5038;53.064;8.624;2023-04-25T09:52:14;4.33;;;1.70;;
9997;SDS011;5038;53.064;8.624;2023-04-25T09:54:56;5.90;;;2.17;;
9997;SDS011;5038;53.064;8.624;2023-04-25T09:57:30;6.87;;;1.80;;
9997;SDS011;5038;53.064;8.624;2023-04-25T10:00:01;7.07;;;2.20;;
9997;SDS011;5038;53.064;8.624;2023-04-25T10:02:41;4.53;;;2.00;;
9997;SDS011;5038;53.064;8.624;2023-04-25T10:05:19;5.37;;;1.97;;
9997;SDS011;5038;53.064;8.624;2023-04-25T10:07:53;8.63;;;2.43;;
9997;SDS011;5038;53.064;8.624;2023-04-25T10:10:24;8.73;;;2.13;;
9997;SDS011;5038;53.064;8.624;2023-04-25T10:12:57;6.53;;;2.20;;
9997;SDS011;5038;53.064;8.624;2023-04-25T10:15:27;7.97;;;2.50;;
9997;SDS011;5038;53.064;8.624;2023-04-25T10:17:55;6.27;;;2.33;;
9997;SDS011;5038;53.064;8.624;2023-04-25T10:20:24;5.80;;;2.00;;
9997;SDS011;5038;53.064;8.624;2023-04-25T10:22:53;8.00;;;2.37;;
9997;SDS011;5038;53.064;8.624;2023-04-25T10:25:25;6.97;;;2.60;;
9997;SDS011;5038;53.064;8.624;2023-04-25T10:27:53;6.87;;;2.20;;
9997;SDS011;5038;53.064;8.624;2023-04-25T10:30:21;7.80;;;2.43;;
9997;SDS011;5038;53.064;8.624;2023-04-25T10:32:50;4.10;;;1.60;;
9997;SDS011;5038;53.064;8.624;2023-04-25T10:35:24;5.70;;;2.03;;
9997;SDS011;5038;53.064;8.624;2023-04-25T10:37:56;5.43;;;2.00;;
9997;SDS011;5038;53.064;8.624;2023-04-25T10:40:25;5.33;;;1.73;;
9997;SDS011;5038;53.064;8.624;2023-04-25T10:42:54;4.80;;;1.60;;
9997;SDS011;5038;53.064;8.624;2023-04-25T10:45:22;6.73;;;1.77;;
9997;SDS011;5038;53.064;8.624;2023-04-25T10:47:52;5.67;;;1.80;;
9997;SDS011;5038;53.064;8.624;2023-04-25T10:50:20;7.70;;;1.97;;
9997;SDS011;5038;53.064;8.624;2023-04-25T10:52:48;6.47;;;1.60;;
9997;SDS011;5038;53.064;8.624;2023-04-25T10:55:16;8.47;;;1.97;;
9997;SDS011;5038;53.064;8.624;2023-04-25T10:57:45;7.60;;;2.17;;
9997;SDS011;5038;53.064;8.624;2023-04-25T11:00:15;5.80;;;1.90;;
9997;SDS011;5038;53.064;8.624;2023-04-25T11:02:45;7.83;;;2.10;;
9997;SDS011;5038;53.064;8.624;2023-04-25T11:05:22;6.07;;;2.23;;
9997;SDS011;5038;53.064;8.624;2023-04-25T11:07:58;6.47;;;2.50;;
9997;SDS011;5038;53.064;8.624;2023-04-25T11:10:33;5.80;;;2.03;;
9997;SDS011;5038;53.064;8.624;2023-04-25T11:13:02;4.90;;;1.83;;
9997;SDS011;5038;53.064;8.624;2023-04-25T11:15:31;6.90;;;2.00;;
9997;SDS011;5038;53.064;8.624;2023-04-25T11:17:59;9.53;;;2.90;;
9997;SDS011;5038;53.064;8.624;2023-04-25T11:20:29;7.50;;;2.07;;
9997;SDS011;5038;53.064;8.624;2023-04-25T11:22:58;6.70;;;2.13;;
9997;SDS011;5038;53.064;8.624;2023-04-25T11:25:27;6.13;;;2.27;;
9997;SDS011;5038;53.064;8.624;2023-04-25T11:27:57;7.10;;;2.87;;
9997;SDS011;5038;53.064;8.624;2023-04-25T11:30:27;6.83;;;2.67;;
9997;SDS011;5038;53.064;8.624;2023-04-25T11:32:56;7.33;;;2.47;;
9997;SDS011;5038;53.064;8.624;2023-04-25T11:35:25;8.50;;;2.60;;
9997;SDS011;5038;53.064;8.624;2023-04-25T11:37:54;7.80;;;2.63;;
9997;SDS011;5038;53.064;8.624;2023-04-25T11:40:22;6.23;;;2.27;;
9997;SDS011;5038;53.064;8.624;2023-04-25T11:42:51;7.13;;;2.13;;
9997;SDS011;5038;53.064;8.624;2023-04-25T11:45:20;7.70;;;2.50;;
9997;SDS011;5038;53.064;8.624;2023-04-25T11:47:51;6.47;;;2.70;;
9997;SDS011;5038;53.064;8.624;2023-04-25T11:50:19;8.90;;;2.50;;
9997;SDS011;5038;53.064;8.624;2023-04-25T11:52:47;4.97;;;2.67;;
9997;SDS011;5038;53.064;8.624;2023-04-25T11:55:19;7.30;;;2.30;;
9997;SDS011;5038;53.064;8.624;2023-04-25T11:57:48;5.37;;;2.20;;
9997;SDS011;5038;53.064;8.624;2023-04-25T12:00:17;8.60;;;2.60;;
9997;SDS011;5038;53.064;8.624;2023-04-25T12:02:50;9.23;;;2.30;;
9997;SDS011;5038;53.064;8.624;2023-04-25T12:05:19;6.20;;;1.80;;
9997;SDS011;5038;53.064;8.624;2023-04-25T12:07:53;4.60;;;1.67;;
9997;SDS011;5038;53.064;8.624;2023-04-25T12:10:24;6.60;;;1.80;;
9997;SDS011;5038;53.064;8.624;2023-04-25T12:12:52;6.90;;;2.10;;
9997;SDS011;5038;53.064;8.624;2023-04-25T12:15:23;5.47;;;1.93;;
9997;SDS011;5038;53.064;8.624;2023-04-25T12:17:52;6.07;;;1.70;;
9997;SDS011;5038;53.064;8.624;2023-04-25T12:20:23;9.07;;;2.37;;
9997;SDS011;5038;53.064;8.624;2023-04-25T12:22:53;5.73;;;1.67;;
9997;SDS011;5038;53.064;8.624;2023-04-25T12:25:35;4.40;;;1.97;;
9997;SDS011;5038;53.064;8.624;2023-04-25T12:28:15;6.30;;;2.10;;
9997;SDS011;5038;53.064;8.624;2023-04-25T12:30:52;6.40;;;1.90;;
9997;SDS011;5038;53.064;8.624;2023-04-25T12:33:25;6.33;;;2.37;;
9997;SDS011;5038;53.064;8.624;2023-04-25T12:35:54;6.40;;;2.20;;
9997;SDS011;5038;53.064;8.624;2023-04-25T12:38:24;10.70;;;2.90;;
9997;SDS011;5038;53.064;8.624;2023-04-25T12:40:54;7.00;;;2.10;;
9997;SDS011;5038;53.064;8.624;2023-04-25T12:43:23;6.60;;;2.47;;
9997;SDS011;5038;53.064;8.624;2023-04-25T12:45:52;8.70;;;2.43;;
9997;SDS011;5038;53.064;8.624;2023-04-25T12:48:22;8.10;;;2.10;;
9997;SDS011;5038;53.064;8.624;2023-04-25T12:50:50;7.23;;;1.83;;
9997;SDS011;5038;53.064;8.624;2023-04-25T12:53:20;7.07;;;2.30;;
9997;SDS011;5038;53.064;8.624;2023-04-25T12:55:49;5.80;;;2.03;;
9997;SDS011;5038;53.064;8.624;2023-04-25T12:58:19;7.87;;;2.20;;
9997;SDS011;5038;53.064;8.624;2023-04-25T13:00:47;7.30;;;2.10;;
9997;SDS011;5038;53.064;8.624;2023-04-25T13:03:15;5.97;;;1.90;;
9997;SDS011;5038;53.064;8.624;2023-04-25T13:05:44;8.77;;;2.13;;
9997;SDS011;5038;53.064;8.624;2023-04-25T13:08:12;7.77;;;2.00;;
9997;SDS011;5038;53.064;8.624;2023-04-25T13:10:40;6.73;;;1.70;;
9997;SDS011;5038;53.064;8.624;2023-04-25T13:13:08;11.27;;;2.30;;
9997;SDS011;5038;53.064;8.624;2023-04-25T13:15:38;6.17;;;2.30;;
9997;SDS011;5038;53.064;8.624;2023-04-25T13:18:06;6.53;;;2.73;;
9997;SDS011;5038;53.064;8.624;2023-04-25T13:20:34;5.73;;;1.97;;
9997;SDS011;5038;53.064;8.624;2023-04-25T13:23:02;5.63;;;2.20;;
9997;SDS011;5038;53.064;8.624;2023-04-25T13:25:31;5.03;;;1.87;;
9997;SDS011;5038;53.064;8.624;2023-04-25T13:27:59;8.07;;;2.00;;
9997;SDS011;5038;53.064;8.624;2023-04-25T13:30:27;7.50;;;2.50;;
9997;SDS011;5038;53.064;8.624;2023-04-25T13:32:56;7.40;;;2.73;;
9997;SDS011;5038;53.064;8.624;2023-04-25T13:35:29;7.33;;;2.40;;
9997;SDS011;5038;53.064;8.624;2023-04-25T13:37:58;8.20;;;2.57;;
9997;SDS011;5038;53.064;8.624;2023-04-25T13:40:26;4.53;;;1.40;;
9997;SDS011;5038;53.064;8.624;2023-04-25T13:42:54;6.63;;;1.50;;
9997;SDS011;5038;53.064;8.624;2023-04-25T13:45:23;4.73;;;1.50;;
9997;SDS011;5038;53.064;8.624;2023-04-25T13:47:51;5.80;;;1.80;;
9997;SDS011;5038;53.064;8.624;2023-04-25T13:50:20;6.97;;;1.50;;
9997;SDS011;5038;53.064;8.624;2023-04-25T13:52:49;3.83;;;1.20;;
9997;SDS011;5038;53.064;8.624;2023-04-25T13:55:17;3.77;;;1.40;;
9997;SDS011;5038;53.064;8.624;2023-04-25T13:57:46;4.03;;;1.37;;
9997;SDS011;5038;53.064;8.624;2023-04-25T14:00:14;5.90;;;1.87;;
9997;SDS011;5038;53.064;8.624;2023-04-25T14:02:43;7.40;;;2.13;;
9997;SDS011;5038;53.064;8.624;2023-04-25T14:05:13;9.13;;;2.43;;
9997;SDS011;5038;53.064;8.624;2023-04-25T14:07:42;6.20;;;1.90;;
9997;SDS011;5038;53.064;8.624;2023-04-25T14:10:11;7.57;;;1.70;;
9997;SDS011;5038;53.064;8.624;2023-04-25T14:12:39;6.67;;;2.33;;
9997;SDS011;5038;53.064;8.624;2023-04-25T14:15:08;5.93;;;2.20;;
9997;SDS011;5038;53.064;8.624;2023-04-25T14:17:37;6.10;;;2.30;;
9997;SDS011;5038;53.064;8.624;2023-04-25T14:20:08;6.87;;;2.63;;
9997;SDS011;5038;53.064;8.624;2023-04-25T14:22:37;5.90;;;1.93;;
9997;SDS011;5038;53.064;8.624;2023-04-25T14:25:10;7.13;;;2.10;;
9997;SDS011;5038;53.064;8.624;2023-04-25T14:27:39;7.57;;;2.10;;
9997;SDS011;5038;53.064;8.624;2023-04-25T14:30:07;8.43;;;2.40;;
9997;SDS011;5038;53.064;8.624;2023-04-25T14:32:38;6.90;;;3.00;;
9997;SDS011;5038;53.064;8.624;2023-04-25T14:35:06;5.20;;;2.10;;
9997;SDS011;5038;53.064;8.624;2023-04-25T14:37:35;5.40;;;1.80;;
9997;SDS011;5038;53.064;8.624;2023-04-25T14:40:03;4.77;;;2.37;;
9997;SDS011;5038;53.064;8.624;2023-04-25T14:42:34;5.53;;;2.20;;
9997;SDS011;5038;53.064;8.624;2023-04-25T14:45:02;5.93;;;2.00;;
9997;SDS011;5038;53.064;8.624;2023-04-25T14:47:31;7.70;;;1.97;;
9997;SDS011;5038;53.064;8.624;2023-04-25T14:49:59;6.60;;;2.00;;
9997;SDS011;5038;53.064;8.624;2023-04-25T14:52:28;6.00;;;1.93;;
9997;SDS011;5038;53.064;8.624;2023-04-25T14:54:57;6.83;;;2.20;;
9997;SDS011;5038;53.064;8.624;2023-04-25T14:57:26;6.03;;;1.80;;
9997;SDS011;5038;53.064;8.624;2023-04-25T14:59:56;5.17;;;2.07;;
9997;SDS011;5038;53.064;8.624;2023-04-25T15:02:24;7.73;;;2.63;;
9997;SDS011;5038;53.064;8.624;2023-04-25T15:04:53;8.80;;;2.20;;
9997;SDS011;5038;53.064;8.624;2023-04-25T15:07:22;9.77;;;2.73;;
9997;SDS011;5038;53.064;8.624;2023-04-25T15:09:50;10.10;;;2.43;;
9997;SDS011;5038;53.064;8.624;2023-04-25T15:12:19;5.20;;;2.10;;
9997;SDS011;5038;53.064;8.624;2023-04-25T15:14:47;8.30;;;2.83;;
9997;SDS011;5038;53.064;8.624;2023-04-25T15:17:17;9.20;;;2.80;;
9997;SDS011;5038;53.064;8.624;2023-04-25T15:19:45;7.80;;;2.93;;
9997;SDS011;5038;53.064;8.624;2023-04-25T15:22:13;8.00;;;2.40;;
9997;SDS011;5038;53.064;8.624;2023-04-25T15:24:42;5.87;;;2.50;;
9997;SDS011;5038;53.064;8.624;2023-04-25T15:27:10;9.10;;;3.17;;
9997;SDS011;5038;53.064;8.624;2023-04-25T15:29:38;6.00;;;1.97;;
9997;SDS011;5038;53.064;8.624;2023-04-25T15:32:07;4.87;;;2.10;;
9997;SDS011;5038;53.064;8.624;2023-04-25T15:34:37;6.43;;;2.47;;
9997;SDS011;5038;53.064;8.624;2023-04-25T15:37:05;8.60;;;2.43;;
9997;SDS011;5038;53.064;8.624;2023-04-25T15:39:33;7.87;;;2.87;;